Date,TemperatureHighF,TemperatureAvgF,TemperatureLowF,DewpointHighF,DewpointAvgF,DewpointLowF,HumidityHigh,HumidityAvg,HumidityLow,PressureMaxIn,PressureMinIn,WindSpeedMaxMPH,WindSpeedAvgMPH,GustSpeedMaxMPH,PrecipitationSumIn
2013-8-1,95,86,73,65,55,45,75,38,19,30.23,30.03,12,7,26,0.00
2013-8-2,96,85,69,63,55,51,67,38,21,30.11,29.97,15,5,23,0.00
2013-8-3,97,86,73,61,55,47,62,36,18,30.13,30.00,14,6,22,0.00
2013-8-4,98,87,75,62,54,48,59,34,18,30.14,29.98,13,5,22,0.00
2013-8-5,96,86,73,58,53,47,57,34,19,30.12,29.95,20,7,31,0.00
2013-8-6,93,84,69,59,54,48,69,38,22,30.10,29.98,18,8,32,0.00
2013-8-7,90,82,69,57,53,50,61,38,25,30.12,29.97,16,9,28,0.00
2013-8-8,94,83,68,55,48,43,59,32,17,30.09,29.95,14,6,27,0.00
2013-8-9,96,84,69,52,46,39,50,28,14,30.12,30.00,13,6,23,0.00
2013-8-10,84,77,70,66,58,48,73,53,29,30.31,30.12,30,7,39,0.00
2013-8-11,86,74,63,67,62,57,95,69,38,30.29,30.11,23,10,31,0.00
2013-8-12,93,79,69,67,62,52,88,60,25,30.21,30.04,15,5,21,0.00
2013-8-13,93,81,72,64,55,-100,74,47,23,30.20,30.04,13,5,19,0.00
2013-8-14,94,79,70,62,54,-100,69,46,26,30.19,30.04,12,5,25,0.00
2013-8-15,92,67,68,64,36,-100,88,49,28,30.21,30.08,13,4,20,0.00
2013-8-16,95,83,69,58,53,47,64,38,19,30.21,30.09,11,5,20,0.00
2013-8-17,97,82,67,59,48,-100,72,35,15,30.19,30.04,14,5,24,0.00
2013-8-18,96,86,73,58,51,47,60,32,19,30.18,30.04,16,4,25,0.00
2013-8-19,95,72,67,58,38,-100,73,39,21,30.15,30.04,15,6,21,0.00
2013-8-20,92,80,69,59,51,-100,68,40,20,30.12,30.01,15,6,23,0.00
2013-8-21,95,80,65,57,49,35,73,38,15,30.14,30.02,9,5,21,0.00
2013-8-22,92,82,65,52,42,36,54,26,13,30.19,30.02,13,6,23,0.00
2013-8-23,90,79,65,56,52,41,63,41,24,30.15,30.01,22,6,38,0.00
2013-8-24,90,78,66,58,51,-100,68,43,27,30.16,30.04,14,7,25,0.00
2013-8-25,92,82,68,57,53,50,60,38,24,30.24,30.10,17,7,25,0.00
2013-8-26,91,81,70,57,53,48,57,40,23,30.24,30.09,13,7,23,0.00
2013-8-27,84,76,67,59,56,51,64,50,36,30.19,30.12,13,7,24,0.00
2013-8-28,82,78,73,65,61,58,77,57,45,30.18,30.13,8,4,11,0.00
2013-8-29,78,71,66,68,65,64,96,81,62,30.28,30.16,14,5,21,0.00
2013-8-30,90,77,64,67,64,59,98,67,35,30.23,30.07,6,3,13,0.00
2013-8-31,95,79,66,67,56,-100,93,54,24,30.12,29.97,9,3,12,0.00